Time;durP1;ratioP1;P1;durP2;ratioP2;P2;SDS_P1;SDS_P2;PMS_P1;PMS_P2;Temp;Humidity;BMP_temperature;BMP_pressure;BME280_temperature;BME280_humidity;BME280_pressure;Samples;Min_cycle;Max_cycle;Signal;HPM_P1;HPM_P2
2022/03/13 00:02:03;;;;;;;15.17;9.10;;;;;;;-0.55;67.43;100715.97;5123121;28;20197;-86
2022/03/13 00:04:32;;;;;;;15.40;9.13;;;;;;;-0.41;67.27;100717.31;5119633;28;20211;-87
2022/03/13 00:06:59;;;;;;;14.73;9.40;;;;;;;-0.42;67.44;100705.38;5118690;28;20262;-87
2022/03/13 00:09:26;;;;;;;15.83;9.73;;;;;;;-1.27;67.66;100572.44;5120027;28;20226;-87
2022/03/13 00:11:54;;;;;;;19.60;11.63;;;;;;;-1.23;68.24;100590.41;5120693;28;20267;-88
2022/03/13 00:14:24;;;;;;;18.27;11.10;;;;;;;-0.63;68.46;100692.78;5123172;28;20181;-87
2022/03/13 00:16:53;;;;;;;17.00;11.03;;;;;;;-0.88;69.28;100660.44;5122825;28;20215;-86
2022/03/13 00:19:21;;;;;;;18.30;11.33;;;;;;;-1.80;69.49;100487.34;5122853;28;20207;-87
2022/03/13 00:21:53;;;;;;;16.07;10.27;;;;;;;-0.59;69.44;100691.19;5124970;28;20189;-88
2022/03/13 00:24:22;;;;;;;14.93;9.37;;;;;;;-0.71;69.34;100684.00;5125782;28;20224;-88
2022/03/13 00:26:52;;;;;;;15.57;10.10;;;;;;;-0.93;69.18;100651.78;5126470;28;20221;-88
2022/03/13 00:29:19;;;;;;;15.13;9.13;;;;;;;-1.69;68.52;100520.84;5126911;28;20221;-88
2022/03/13 00:31:46;;;;;;;17.63;8.80;;;;;;;-1.01;69.37;100645.53;5128681;28;20190;-85
2022/03/13 00:34:14;;;;;;;15.80;8.47;;;;;;;-0.77;69.37;100678.66;5125261;28;20245;-87
2022/03/13 00:36:41;;;;;;;13.60;8.27;;;;;;;-0.95;69.53;100653.41;5126452;28;20191;-88
2022/03/13 00:39:11;;;;;;;14.40;8.77;;;;;;;-0.65;68.28;100675.69;5126938;28;20220;-87
2022/03/13 00:41:38;;;;;;;13.23;8.20;;;;;;;-0.78;69.05;100676.94;5126618;28;20296;-88
2022/03/13 00:44:06;;;;;;;14.53;9.23;;;;;;;-0.96;70.37;100661.00;5128613;28;20188;-88
2022/03/13 00:46:33;;;;;;;14.27;9.07;;;;;;;-1.40;70.91;100624.59;5128656;28;20195;-89
2022/03/13 00:49:00;;;;;;;11.07;7.83;;;;;;;-1.60;71.39;100572.97;5128965;28;20253;-87
2022/03/13 00:51:27;;;;;;;11.50;7.83;;;;;;;-1.28;71.12;100627.59;5123975;28;20279;-87
2022/03/13 00:53:54;;;;;;;15.00;8.10;;;;;;;-1.10;71.03;100674.09;5123909;28;20194;-87
2022/03/13 00:56:23;;;;;;;14.30;8.13;;;;;;;-1.05;71.52;100683.59;5124637;28;20682;-87
2022/03/13 00:58:50;;;;;;;12.63;8.23;;;;;;;-0.98;70.18;100683.00;5127717;28;20242;-85
2022/03/13 01:01:18;;;;;;;12.53;8.33;;;;;;;-1.60;70.84;100585.69;5126067;28;20219;-88
2022/03/13 01:03:50;;;;;;;14.37;9.10;;;;;;;-2.44;70.39;100433.25;5128126;28;20218;-86
2022/03/13 01:06:18;;;;;;;22.97;10.50;;;;;;;-0.97;70.22;100666.91;5127322;28;20183;-88
2022/03/13 01:08:46;;;;;;;16.50;10.27;;;;;;;-1.47;69.79;100592.09;5128147;28;20250;-87
2022/03/13 01:11:15;;;;;;;18.57;10.40;;;;;;;-1.57;69.95;100573.03;5125842;28;20232;-88
2022/03/13 01:13:43;;;;;;;16.93;10.47;;;;;;;-1.13;69.48;100633.22;5124502;28;20224;-86
2022/03/13 01:16:14;;;;;;;17.77;11.00;;;;;;;-0.77;68.52;100676.97;5116562;28;20216;-86
2022/03/13 01:18:49;;;;;;;18.10;10.70;;;;;;;-0.79;67.98;100678.59;5117395;28;20185;-86
2022/03/13 01:21:17;;;;;;;17.90;10.70;;;;;;;-1.38;67.81;100578.81;5113678;28;20241;-87
2022/03/13 01:24:18;;;;;;;18.33;10.40;;;;;;;-1.49;68.50;100556.41;5117159;28;20190;-87
2022/03/13 01:26:49;;;;;;;16.73;10.17;;;;;;;-1.25;68.13;100592.06;5116465;28;20248;-85
2022/03/13 01:29:18;;;;;;;15.10;9.60;;;;;;;-0.85;67.21;100659.69;5115039;28;20304;-85
2022/03/13 01:31:47;;;;;;;17.40;9.57;;;;;;;-1.48;66.94;100555.59;5112141;28;20620;-85
2022/03/13 01:34:26;;;;;;;14.10;9.43;;;;;;;-0.90;66.10;100645.91;5114357;28;20196;-86
2022/03/13 01:36:53;;;;;;;11.50;8.43;;;;;;;-1.05;65.92;100612.25;5115181;28;20199;-87
2022/03/13 01:39:20;;;;;;;13.63;9.43;;;;;;;-1.31;65.37;100568.03;5118311;28;20205;-85
2022/03/13 01:41:47;;;;;;;15.97;9.60;;;;;;;-1.37;65.86;100567.81;5124480;28;20263;-86
2022/03/13 01:44:14;;;;;;;15.47;9.87;;;;;;;-1.26;65.85;100587.78;5125133;28;20212;-91
2022/03/13 01:46:43;;;;;;;13.87;9.23;;;;;;;-1.05;65.70;100630.97;5128272;28;20200;-84
2022/03/13 01:49:10;;;;;;;15.27;10.30;;;;;;;-1.89;66.17;100487.03;5125971;28;20269;-87
2022/03/13 01:51:37;;;;;;;19.17;11.00;;;;;;;-1.54;65.77;100552.78;5126498;28;20681;-86
2022/03/13 01:54:07;;;;;;;17.30;10.63;;;;;;;-1.45;66.16;100585.34;5127276;28;20213;-85
2022/03/13 01:56:36;;;;;;;17.67;10.47;;;;;;;-1.26;66.81;100614.91;5118951;28;20220;-86
2022/03/13 01:59:06;;;;;;;15.33;10.37;;;;;;;-1.06;67.53;100670.00;5128718;28;20273;-88
2022/03/13 02:01:33;;;;;;;19.80;11.40;;;;;;;-1.08;66.93;100656.31;5128553;28;20201;-88
2022/03/13 02:04:02;;;;;;;14.80;10.23;;;;;;;-1.50;67.73;100619.97;5131398;28;20220;-87
2022/03/13 02:06:29;;;;;;;19.30;11.17;;;;;;;-1.86;68.11;100551.63;5128578;28;20274;-88
2022/03/13 02:08:57;;;;;;;18.90;11.73;;;;;;;-1.31;68.70;100640.22;5123240;28;20219;-88
2022/03/13 02:11:26;;;;;;;21.00;11.03;;;;;;;-1.53;67.91;100574.91;5124606;28;20267;-87
2022/03/13 02:13:54;;;;;;;15.20;10.10;;;;;;;-1.87;68.41;100544.78;5121071;28;20542;-86
2022/03/13 02:16:22;;;;;;;18.40;10.50;;;;;;;-1.26;69.18;100661.63;5119333;28;20666;-86
2022/03/13 02:18:51;;;;;;;20.70;11.73;;;;;;;-1.69;69.82;100603.13;5118746;28;20245;-85
2022/03/13 02:21:23;;;;;;;23.37;12.50;;;;;;;-1.69;71.22;100622.66;5120910;28;20190;-88
2022/03/13 02:23:52;;;;;;;17.33;11.73;;;;;;;-1.67;72.16;100626.09;5120738;28;20205;-88
2022/03/13 02:26:21;;;;;;;24.47;12.20;;;;;;;-2.02;73.31;100590.00;5120891;28;20199;-88
2022/03/13 02:28:52;;;;;;;21.77;12.30;;;;;;;-1.59;73.52;100651.06;5120452;28;20254;-89
2022/03/13 02:31:26;;;;;;;21.43;11.43;;;;;;;-2.05;73.35;100583.94;5121851;28;20204;-89
2022/03/13 02:33:54;;;;;;;21.90;11.67;;;;;;;-2.37;75.05;100547.09;5124109;28;20209;-89
2022/03/13 02:36:41;;;;;;;22.27;12.07;;;;;;;-2.24;74.88;100545.06;5124227;28;20285;-88
2022/03/13 02:39:11;;;;;;;23.63;12.20;;;;;;;-2.18;75.60;100563.94;5123289;28;20252;-89
2022/03/13 02:41:40;;;;;;;20.00;10.80;;;;;;;-2.29;74.94;100548.25;5121225;28;20199;-88
2022/03/13 02:44:09;;;;;;;19.83;10.60;;;;;;;-1.79;75.53;100651.09;5121700;28;20194;-88
2022/03/13 02:46:54;;;;;;;19.60;11.17;;;;;;;-1.72;74.81;100637.81;5116337;28;20208;-87
2022/03/13 02:49:23;;;;;;;18.37;11.33;;;;;;;-1.81;76.04;100640.88;5113220;28;20693;-88
2022/03/13 02:51:53;;;;;;;21.70;11.10;;;;;;;-1.69;76.40;100653.19;5113577;28;20206;-87
2022/03/13 02:54:22;;;;;;;23.30;11.40;;;;;;;-2.12;77.81;100598.09;5113615;28;20582;-86
2022/03/13 02:56:49;;;;;;;21.03;11.97;;;;;;;-2.18;77.82;100558.84;5113192;28;20191;-86
2022/03/13 02:59:16;;;;;;;24.73;12.50;;;;;;;-2.35;78.15;100551.41;5113718;28;20191;-87
2022/03/13 03:01:44;;;;;;;20.37;12.03;;;;;;;-2.42;78.69;100552.00;5113855;28;20581;-88
2022/03/13 03:04:12;;;;;;;22.27;11.80;;;;;;;-1.89;78.27;100634.59;5113907;28;20207;-88
2022/03/13 03:06:49;;;;;;;23.27;12.33;;;;;;;-1.68;77.12;100660.00;5112832;28;20198;-88
2022/03/13 03:09:18;;;;;;;23.73;12.77;;;;;;;-1.92;78.06;100657.41;5112694;28;20222;-88
2022/03/13 03:11:47;;;;;;;24.57;12.03;;;;;;;-2.19;76.69;100593.56;5112925;28;20198;-89
2022/03/13 03:14:15;;;;;;;20.17;11.87;;;;;;;-2.41;78.40;100573.19;5113452;28;20187;-87
2022/03/13 03:16:42;;;;;;;22.90;12.47;;;;;;;-3.16;79.96;100463.44;5115312;28;20191;-91
2022/03/13 03:19:09;;;;;;;30.83;13.13;;;;;;;-2.68;80.26;100524.66;5116577;28;20289;-90
2022/03/13 03:21:37;;;;;;;19.80;11.10;;;;;;;-2.28;78.51;100558.50;5115354;28;20190;-88
2022/03/13 03:24:12;;;;;;;17.60;11.07;;;;;;;-1.70;76.43;100642.16;5115400;28;20305;-83
2022/03/13 03:26:39;;;;;;;17.60;10.70;;;;;;;-1.66;75.90;100643.13;5112196;28;20581;-84
2022/03/13 03:29:07;;;;;;;25.50;11.40;;;;;;;-2.19;76.43;100573.22;5111972;28;20222;-84
2022/03/13 03:31:34;;;;;;;21.57;11.37;;;;;;;-1.88;77.17;100641.44;5112107;28;20201;-83
2022/03/13 03:34:01;;;;;;;19.53;10.73;;;;;;;-1.92;77.08;100630.25;5111734;28;20195;-82
2022/03/13 03:36:28;;;;;;;22.17;11.67;;;;;;;-3.15;76.67;100406.78;5111790;28;20202;-83
2022/03/13 03:38:55;;;;;;;21.50;11.37;;;;;;;-1.80;76.35;100634.94;5111770;28;20195;-83
2022/03/13 03:41:22;;;;;;;19.13;11.33;;;;;;;-1.87;76.26;100638.94;5111602;28;20204;-84
2022/03/13 03:43:49;;;;;;;18.10;11.07;;;;;;;-1.72;76.17;100633.59;5115839;28;20206;-84
2022/03/13 03:46:17;;;;;;;17.47;10.30;;;;;;;-1.58;73.44;100629.84;5112692;28;20201;-85
2022/03/13 03:48:44;;;;;;;21.93;10.80;;;;;;;-1.51;72.20;100636.94;5112071;28;20613;-84
2022/03/13 03:51:11;;;;;;;22.87;11.30;;;;;;;-1.52;72.02;100632.66;5112237;28;20226;-83
2022/03/13 03:53:37;;;;;;;17.43;10.90;;;;;;;-1.63;72.65;100633.94;5111783;28;20599;-82
2022/03/13 03:56:05;;;;;;;16.83;10.47;;;;;;;-1.68;73.74;100629.44;5111366;28;20202;-82
2022/03/13 03:58:32;;;;;;;17.73;10.50;;;;;;;-1.67;76.26;100628.66;5111509;28;20580;-83
2022/03/13 04:00:59;;;;;;;19.03;11.10;;;;;;;-1.98;73.59;100591.88;5111611;28;20278;-84
2022/03/13 04:03:27;;;;;;;17.60;9.53;;;;;;;-1.96;74.75;100577.53;5111876;28;20626;-83
2022/03/13 04:05:54;;;;;;;15.53;9.83;;;;;;;-1.62;74.62;100628.03;5111502;28;20210;-82
2022/03/13 04:08:21;;;;;;;17.50;11.03;;;;;;;-1.74;73.88;100609.75;5111480;28;20198;-82
2022/03/13 04:10:48;;;;;;;19.87;10.77;;;;;;;-2.13;73.87;100560.75;5110784;28;20214;-82
2022/03/13 04:13:16;;;;;;;19.00;10.33;;;;;;;-1.71;74.11;100627.69;5111247;28;20194;-83
2022/03/13 04:15:43;;;;;;;16.33;9.77;;;;;;;-1.82;72.91;100600.97;5110688;28;20206;-83
2022/03/13 04:18:10;;;;;;;19.67;10.40;;;;;;;-1.87;72.73;100594.81;5106828;28;20191;-82
2022/03/13 04:20:38;;;;;;;16.50;9.27;;;;;;;-2.03;74.65;100617.94;5111084;28;20285;-85
2022/03/13 04:23:05;;;;;;;14.90;9.97;;;;;;;-2.25;74.56;100575.53;5102784;27;20190;-83
2022/03/13 04:25:33;;;;;;;18.50;9.53;;;;;;;-1.90;75.56;100632.84;5113796;27;20278;-84
2022/03/13 04:28:00;;;;;;;15.87;10.03;;;;;;;-1.98;74.59;100614.75;5105603;27;20279;-85
2022/03/13 04:30:31;;;;;;;17.50;10.20;;;;;;;-1.79;74.16;100608.69;5099124;28;20242;-84
2022/03/13 04:32:58;;;;;;;18.00;10.50;;;;;;;-2.07;73.87;100578.81;5117822;27;20222;-85
2022/03/13 04:35:25;;;;;;;21.90;11.30;;;;;;;-1.74;74.19;100639.41;5111436;28;20218;-92
2022/03/13 04:37:53;;;;;;;16.77;10.43;;;;;;;-1.70;73.72;100642.16;5111054;28;20199;-86
2022/03/13 04:40:20;;;;;;;19.97;11.37;;;;;;;-1.95;74.04;100598.75;5104887;28;20188;-79
2022/03/13 04:42:47;;;;;;;19.23;11.27;;;;;;;-1.85;74.54;100628.81;5104519;28;20208;-88
2022/03/13 04:45:14;;;;;;;20.33;11.47;;;;;;;-1.70;74.85;100634.53;5111359;28;20579;-82
2022/03/13 04:47:41;;;;;;;19.50;11.20;;;;;;;-2.05;73.92;100572.09;5118521;28;20221;-87
2022/03/13 04:50:09;;;;;;;19.20;12.30;;;;;;;-1.76;73.96;100630.84;5108092;28;20214;-85
2022/03/13 04:52:36;;;;;;;20.87;12.53;;;;;;;-1.69;73.11;100638.75;5101569;27;20225;-86
2022/03/13 04:55:05;;;;;;;19.53;11.53;;;;;;;-1.84;73.26;100617.84;5093992;28;20229;-83
2022/03/13 04:57:32;;;;;;;20.80;12.03;;;;;;;-1.75;72.65;100599.50;5110208;28;20222;-89
2022/03/13 04:59:59;;;;;;;22.73;11.53;;;;;;;-1.38;71.60;100638.25;5104600;28;20225;-88
2022/03/13 05:02:26;;;;;;;19.53;11.37;;;;;;;-1.32;71.50;100641.00;5112764;28;20223;-85
2022/03/13 05:04:53;;;;;;;18.63;11.83;;;;;;;-1.53;70.78;100589.31;5109002;28;20245;-89
2022/03/13 05:07:21;;;;;;;20.00;11.63;;;;;;;-1.30;70.00;100620.69;5110204;28;20614;-84
2022/03/13 05:09:48;;;;;;;17.73;11.30;;;;;;;-1.19;69.88;100627.91;5101738;28;20725;-86
2022/03/13 05:12:17;;;;;;;20.00;11.13;;;;;;;-1.16;69.46;100633.13;5110283;28;20261;-87
2022/03/13 05:14:44;;;;;;;20.33;11.10;;;;;;;-1.27;69.33;100608.97;5109751;28;20223;-83
2022/03/13 05:17:11;;;;;;;16.83;11.03;;;;;;;-1.21;69.78;100629.53;5109826;28;20233;-86
2022/03/13 05:19:38;;;;;;;22.97;11.90;;;;;;;-1.26;70.43;100632.75;5109186;28;20218;-81
2022/03/13 05:22:05;;;;;;;18.57;11.37;;;;;;;-1.38;71.58;100634.84;5110050;28;20283;-88
2022/03/13 05:24:32;;;;;;;17.47;11.27;;;;;;;-2.13;72.52;100517.50;5109913;28;20235;-81
2022/03/13 05:26:59;;;;;;;20.67;11.37;;;;;;;-1.74;72.80;100580.88;5110939;28;20563;-81
2022/03/13 05:29:28;;;;;;;17.47;10.70;;;;;;;-1.61;73.51;100619.59;5113063;28;20221;-84
2022/03/13 05:31:54;;;;;;;17.60;11.10;;;;;;;-1.33;72.77;100641.81;5115857;28;20226;-83
2022/03/13 05:34:21;;;;;;;23.47;11.73;;;;;;;-1.96;72.46;100535.97;5114340;28;20194;-86
2022/03/13 05:36:48;;;;;;;27.40;13.73;;;;;;;-1.12;71.98;100650.25;5114550;28;20202;-83
2022/03/13 05:39:15;;;;;;;29.50;15.50;;;;;;;-0.97;72.20;100644.84;5114767;28;20207;-85
2022/03/13 05:41:42;;;;;;;41.83;18.50;;;;;;;-0.94;70.65;100608.41;5114272;28;20285;-84
2022/03/13 05:44:11;;;;;;;25.97;14.27;;;;;;;-0.67;69.31;100600.81;5113386;28;20189;-80
2022/03/13 05:46:40;;;;;;;24.07;13.27;;;;;;;-0.71;68.57;100573.50;5113852;28;20192;-83
2022/03/13 05:49:08;;;;;;;19.00;10.50;;;;;;;0.17;67.43;100640.13;5113941;28;20266;-84
2022/03/13 05:51:37;;;;;;;43.47;17.33;;;;;;;0.70;64.76;100645.13;5101701;28;20217;-82
2022/03/13 05:54:04;;;;;;;46.83;19.57;;;;;;;0.32;61.77;100524.00;5103220;28;20224;-83
2022/03/13 05:56:31;;;;;;;237.47;79.03;;;;;;;1.47;61.28;100648.06;5105468;28;20705;-84
2022/03/13 05:58:58;;;;;;;256.00;80.70;;;;;;;1.85;59.33;100650.75;5103307;28;20191;-82
2022/03/13 06:01:25;;;;;;;56.00;23.83;;;;;;;2.51;56.24;100648.88;5106331;28;20197;-83
2022/03/13 06:03:54;;;;;;;95.20;34.87;;;;;;;3.33;53.65;100654.81;5104102;28;20288;-82
2022/03/13 06:06:21;;;;;;;120.43;39.23;;;;;;;3.86;51.06;100614.63;5097240;28;20596;-82
2022/03/13 06:08:48;;;;;;;221.90;60.77;;;;;;;4.47;49.52;100651.53;5108126;28;20195;-83
2022/03/13 06:11:15;;;;;;;182.60;52.77;;;;;;;4.93;48.21;100653.00;5110002;27;20218;-82
2022/03/13 06:13:42;;;;;;;158.87;46.83;;;;;;;5.00;47.03;100599.06;5121061;27;20290;-82
2022/03/13 06:16:09;;;;;;;277.20;70.17;;;;;;;6.04;45.47;100654.13;5123393;27;20190;-81
2022/03/13 06:18:36;;;;;;;283.07;74.43;;;;;;;7.80;40.87;100647.13;5103421;28;20222;-82
2022/03/13 06:21:05;;;;;;;749.13;276.13;;;;;;;9.78;37.92;100646.47;5112534;28;20250;-83
2022/03/13 06:23:33;;;;;;;126.83;42.70;;;;;;;11.62;34.52;100650.44;5112086;28;20218;-82
2022/03/13 06:26:00;;;;;;;32.73;18.83;;;;;;;12.38;32.19;100546.84;5111649;28;20713;-83
2022/03/13 06:28:27;;;;;;;34.03;20.73;;;;;;;13.10;31.34;100648.66;5100683;28;21226;-81
2022/03/13 06:30:55;;;;;;;47.17;29.50;;;;;;;13.26;30.19;100649.25;5112431;28;20242;-83
2022/03/13 06:33:22;;;;;;;41.73;26.07;;;;;;;13.45;30.23;100654.91;5112448;28;20222;-86
2022/03/13 06:35:49;;;;;;;23.40;16.17;;;;;;;13.27;29.94;100650.09;5110700;28;20214;-82
2022/03/13 06:38:18;;;;;;;184.10;84.43;;;;;;;13.57;29.72;100571.16;5104925;28;20225;-82
2022/03/13 06:40:45;;;;;;;302.13;138.17;;;;;;;14.95;28.92;100658.06;5111437;28;20602;-82
2022/03/13 06:43:12;;;;;;;139.97;63.27;;;;;;;15.47;27.34;100609.41;5102817;28;20225;-84
2022/03/13 06:45:39;;;;;;;328.17;147.37;;;;;;;16.22;26.64;100649.78;5108293;28;20237;-84
2022/03/13 06:48:06;;;;;;;93.80;45.30;;;;;;;15.80;26.61;100645.03;5106312;28;20230;-83
2022/03/13 06:50:35;;;;;;;119.47;53.67;;;;;;;16.70;25.13;100634.13;5107075;28;20238;-81
2022/03/13 06:53:01;;;;;;;347.67;144.67;;;;;;;17.50;24.65;100627.56;5105248;28;20214;-83
2022/03/13 06:55:30;;;;;;;119.23;51.17;;;;;;;16.57;25.28;100659.03;5107742;28;20214;-84
2022/03/13 06:57:57;;;;;;;443.00;189.73;;;;;;;15.54;26.03;100658.94;5107719;28;20253;-84
2022/03/13 07:00:24;;;;;;;77.90;34.73;;;;;;;15.96;25.90;100651.50;5112991;28;20186;-85
2022/03/13 07:02:51;;;;;;;270.63;109.43;;;;;;;16.66;25.40;100651.72;5109210;28;20206;-88
2022/03/13 07:05:19;;;;;;;263.27;105.67;;;;;;;17.37;24.41;100650.84;5104266;28;20220;-86
2022/03/13 07:07:46;;;;;;;312.42;117.05;;;;;;;18.41;23.38;100643.97;5105594;28;20215;-83
2022/03/13 07:10:13;;;;;;;85.82;39.50;;;;;;;18.93;22.70;100639.06;5107455;28;20223;-82
2022/03/13 07:12:44;;;;;;;147.27;60.63;;;;;;;19.03;22.55;100643.84;5108411;28;20214;-83
2022/03/13 07:15:12;;;;;;;54.25;27.60;;;;;;;19.68;21.87;100642.56;5106778;28;20231;-85
2022/03/13 07:17:39;;;;;;;22.80;17.90;;;;;;;20.52;21.10;100641.00;5110553;28;20229;-87
2022/03/13 07:20:07;;;;;;;36.50;22.17;;;;;;;21.01;20.55;100640.09;5111560;28;20226;-83
2022/03/13 07:22:34;;;;;;;23.13;15.75;;;;;;;21.20;20.15;100644.44;5112598;28;20218;-83
2022/03/13 07:25:01;;;;;;;29.65;15.85;;;;;;;21.51;19.92;100633.88;5112783;28;20214;-85
2022/03/13 07:27:29;;;;;;;25.02;15.93;;;;;;;22.20;18.84;100638.72;5117653;27;20210;-80
2022/03/13 07:29:57;;;;;;;10.93;9.27;;;;;;;22.05;18.68;100598.16;5112096;27;20232;-80
2022/03/13 07:32:24;;;;;;;9.73;8.73;;;;;;;22.64;18.16;100632.53;5112312;27;20210;-79
2022/03/13 07:34:51;;;;;;;9.75;8.80;;;;;;;22.13;18.29;100626.78;5108364;28;20605;-80
2022/03/13 07:37:18;;;;;;;7.18;6.47;;;;;;;20.41;18.91;100596.72;5111351;28;20307;-81
2022/03/13 07:39:47;;;;;;;6.15;5.65;;;;;;;17.69;21.00;100604.97;5115247;27;20274;-79
2022/03/13 07:42:16;;;;;;;6.90;6.20;;;;;;;15.86;22.27;100629.13;5112207;27;20322;-81
2022/03/13 07:44:43;;;;;;;16.73;10.57;;;;;;;14.75;23.64;100624.66;5109120;28;20195;-83
2022/03/13 07:47:12;;;;;;;15.37;9.53;;;;;;;13.67;24.63;100593.50;5111649;28;20209;-80
2022/03/13 07:49:39;;;;;;;5.60;5.13;;;;;;;12.49;25.24;100588.28;5110942;28;20293;-78
2022/03/13 07:52:07;;;;;;;8.33;6.70;;;;;;;12.04;26.30;100627.28;5103340;28;20218;-78
2022/03/13 07:54:34;;;;;;;6.70;6.03;;;;;;;11.15;27.71;100619.09;5112350;28;20630;-79
2022/03/13 07:57:01;;;;;;;6.43;4.93;;;;;;;10.49;28.41;100595.69;5111580;28;20190;-81
2022/03/13 07:59:28;;;;;;;6.70;6.03;;;;;;;10.22;28.93;100606.34;5111760;28;20209;-79
2022/03/13 08:01:55;;;;;;;12.97;6.60;;;;;;;9.48;29.89;100571.53;5111731;28;20281;-79
2022/03/13 08:04:24;;;;;;;7.30;5.83;;;;;;;9.58;30.25;100601.69;5112611;28;20190;-87
2022/03/13 08:06:51;;;;;;;6.10;4.60;;;;;;;9.39;30.11;100622.53;5110750;28;20290;-83
2022/03/13 08:09:18;;;;;;;4.87;4.47;;;;;;;9.46;29.90;100621.63;5111463;28;20705;-82
2022/03/13 08:11:45;;;;;;;6.00;5.07;;;;;;;8.97;30.23;100591.69;5111567;28;20252;-84
2022/03/13 08:14:12;;;;;;;5.77;5.37;;;;;;;8.81;31.28;100601.25;5107632;27;20194;-81
2022/03/13 08:16:40;;;;;;;7.10;6.20;;;;;;;8.81;31.97;100621.97;5131113;27;20205;-83
2022/03/13 08:19:07;;;;;;;7.00;6.27;;;;;;;8.21;32.06;100554.00;5130734;27;20202;-82
2022/03/13 08:21:35;;;;;;;6.67;5.57;;;;;;;8.12;31.40;100581.63;5131622;27;20202;-79
2022/03/13 08:24:02;;;;;;;8.97;6.90;;;;;;;8.29;32.10;100613.47;5131539;27;20300;-78
2022/03/13 08:26:30;;;;;;;6.30;4.87;;;;;;;7.79;31.11;100611.78;5131554;27;20204;-77
2022/03/13 08:28:57;;;;;;;8.27;5.10;;;;;;;7.17;33.79;100611.72;5131590;27;20190;-77
2022/03/13 08:31:24;;;;;;;6.87;5.17;;;;;;;7.00;33.72;100561.78;5131450;27;20247;-77
2022/03/13 08:33:51;;;;;;;7.50;5.10;;;;;;;7.43;33.27;100606.63;5131647;27;20281;-77
2022/03/13 08:36:18;;;;;;;7.43;5.73;;;;;;;7.37;33.73;100588.50;5132809;27;20198;-79
2022/03/13 08:38:46;;;;;;;20.93;6.83;;;;;;;7.76;35.29;100585.09;5132494;27;20639;-77
2022/03/13 08:41:13;;;;;;;6.50;4.40;;;;;;;7.84;34.00;100581.66;5131536;27;20581;-76
2022/03/13 08:43:40;;;;;;;5.23;3.90;;;;;;;8.08;35.67;100592.81;5131043;27;20194;-78
2022/03/13 08:46:07;;;;;;;5.20;4.20;;;;;;;7.90;33.27;100535.09;5131261;27;20194;-79
2022/03/13 08:48:35;;;;;;;3.93;3.53;;;;;;;8.47;33.09;100587.56;5131116;27;20647;-77
2022/03/13 08:51:01;;;;;;;4.20;3.47;;;;;;;8.33;32.87;100597.13;5131083;28;20213;-80
2022/03/13 08:53:28;;;;;;;5.13;3.83;;;;;;;8.47;32.82;100602.25;5131153;28;20201;-77
2022/03/13 08:55:57;;;;;;;5.40;4.13;;;;;;;8.63;32.70;100589.25;5131208;28;20202;-77
2022/03/13 08:58:24;;;;;;;6.30;3.80;;;;;;;8.72;32.57;100590.94;5131141;28;20674;-79
2022/03/13 09:00:52;;;;;;;3.33;3.03;;;;;;;8.60;31.62;100580.63;5131681;27;20271;-80
2022/03/13 09:03:19;;;;;;;5.13;3.27;;;;;;;8.53;32.43;100582.41;5135497;27;20232;-80
2022/03/13 09:05:47;;;;;;;4.30;3.97;;;;;;;8.53;33.01;100579.81;5135679;27;20674;-79
2022/03/13 09:08:14;;;;;;;12.27;4.50;;;;;;;8.33;33.04;100546.25;5135534;27;20645;-82
2022/03/13 09:10:41;;;;;;;4.23;3.90;;;;;;;6.98;33.76;100372.50;5135146;27;20225;-79
2022/03/13 09:13:10;;;;;;;4.40;4.00;;;;;;;8.06;34.15;100569.56;5135570;27;20473;-81
2022/03/13 09:15:39;;;;;;;4.47;4.03;;;;;;;7.81;32.96;100555.78;5135236;27;20193;-80
2022/03/13 09:18:06;;;;;;;6.53;3.63;;;;;;;7.96;32.69;100558.38;5135406;27;20281;-82
2022/03/13 09:20:33;;;;;;;4.10;3.63;;;;;;;7.92;32.96;100537.69;5135445;27;20194;-81
2022/03/13 09:23:00;;;;;;;4.07;3.77;;;;;;;8.05;32.46;100544.56;5116408;27;20610;-80
2022/03/13 09:25:27;;;;;;;3.77;3.47;;;;;;;7.98;32.07;100525.63;5113752;28;20240;-80
2022/03/13 09:27:54;;;;;;;5.60;3.80;;;;;;;7.92;31.67;100515.28;5113714;28;20229;-82
2022/03/13 09:30:22;;;;;;;4.27;3.87;;;;;;;8.25;31.78;100562.59;5113486;28;20671;-80
2022/03/13 09:32:50;;;;;;;3.87;3.57;;;;;;;8.33;31.73;100573.84;5114138;28;20702;-79
2022/03/13 09:35:17;;;;;;;3.93;3.57;;;;;;;8.31;32.07;100555.75;5113452;28;20228;-82
2022/03/13 09:37:45;;;;;;;4.20;3.87;;;;;;;8.16;31.92;100522.13;5113781;28;20218;-81
2022/03/13 09:40:13;;;;;;;4.23;3.83;;;;;;;8.34;32.01;100554.88;5113514;28;20217;-81
2022/03/13 09:42:41;;;;;;;4.27;3.97;;;;;;;8.20;31.52;100535.91;5113330;28;20591;-80
2022/03/13 09:45:08;;;;;;;4.83;4.43;;;;;;;8.44;31.07;100538.44;5113288;28;20770;-78
2022/03/13 09:47:37;;;;;;;4.10;3.73;;;;;;;8.43;32.10;100526.38;5113465;28;20249;-79
2022/03/13 09:50:05;;;;;;;3.90;3.60;;;;;;;8.66;30.77;100544.41;5113180;28;20291;-82
2022/03/13 09:52:33;;;;;;;4.07;3.77;;;;;;;8.61;29.15;100528.88;5113272;28;20593;-81
2022/03/13 09:55:01;;;;;;;21.40;11.00;;;;;;;8.90;29.34;100540.81;5113825;28;20312;-81
2022/03/13 09:57:28;;;;;;;5.13;4.63;;;;;;;8.54;29.08;100500.47;5113576;28;20637;-80
2022/03/13 09:59:55;;;;;;;4.07;3.40;;;;;;;8.83;28.56;100539.97;5112885;28;20230;-83
2022/03/13 10:02:34;;;;;;;3.43;3.23;;;;;;;8.79;29.17;100540.03;5113181;28;20225;-81
2022/03/13 10:05:07;;;;;;;4.03;3.63;;;;;;;8.83;29.42;100527.03;5113002;28;20291;-81
2022/03/13 10:07:52;;;;;;;5.00;3.43;;;;;;;8.95;29.05;100528.69;5113580;28;20724;-80
2022/03/13 10:10:18;;;;;;;3.97;3.20;;;;;;;8.98;27.91;100526.09;5112365;28;20242;-82
2022/03/13 10:12:46;;;;;;;3.90;3.60;;;;;;;9.04;27.82;100521.72;5112622;28;20262;-80
2022/03/13 10:15:14;;;;;;;4.40;4.00;;;;;;;9.21;26.81;100533.72;5112411;28;20287;-81
2022/03/13 10:17:42;;;;;;;7.00;4.20;;;;;;;9.28;27.76;100520.69;5112544;28;20233;-80
2022/03/13 10:20:19;;;;;;;3.97;3.57;;;;;;;9.19;26.96;100489.69;5112528;28;20215;-82
2022/03/13 10:22:48;;;;;;;7.73;5.23;;;;;;;9.59;25.80;100515.28;5112990;28;20220;-81
2022/03/13 10:25:19;;;;;;;5.37;4.20;;;;;;;9.78;25.83;100509.03;5112130;28;20610;-80
2022/03/13 10:27:46;;;;;;;4.50;4.20;;;;;;;9.51;25.67;100457.44;5112465;28;20217;-80
2022/03/13 10:30:13;;;;;;;4.43;4.13;;;;;;;9.65;24.85;100520.41;5111827;28;20309;-82
2022/03/13 10:32:40;;;;;;;12.57;10.07;;;;;;;9.48;24.70;100516.22;5112484;28;20660;-82
2022/03/13 10:35:07;;;;;;;6.23;5.63;;;;;;;9.49;25.59;100485.97;5112213;28;20229;-83
2022/03/13 10:37:42;;;;;;;5.03;4.33;;;;;;;9.56;25.70;100502.34;5112496;28;20222;-82
2022/03/13 10:40:15;;;;;;;5.37;4.87;;;;;;;9.58;26.05;100506.66;5111863;28;20510;-81
2022/03/13 10:42:43;;;;;;;4.90;3.87;;;;;;;9.56;25.02;100503.22;5112262;28;20525;-81
2022/03/13 10:45:31;;;;;;;4.07;3.70;;;;;;;9.62;25.31;100497.94;5112012;28;20227;-81
2022/03/13 10:48:18;;;;;;;4.43;4.13;;;;;;;9.55;25.66;100493.72;5112212;28;20325;-84
2022/03/13 10:50:45;;;;;;;10.03;4.60;;;;;;;9.36;26.60;100448.97;5112519;28;20225;-82
2022/03/13 10:53:15;;;;;;;4.10;3.80;;;;;;;9.71;25.92;100494.41;5111907;28;20242;-81
2022/03/13 10:55:42;;;;;;;4.00;3.70;;;;;;;9.80;24.84;100486.56;5111457;28;20232;-83
2022/03/13 10:58:09;;;;;;;4.60;4.17;;;;;;;9.52;25.56;100404.75;5111847;28;20272;-83
2022/03/13 11:00:37;;;;;;;4.10;3.80;;;;;;;9.84;25.58;100431.19;5111702;28;20218;-81
2022/03/13 11:03:11;;;;;;;4.40;4.10;;;;;;;10.43;25.09;100474.59;5112254;28;20225;-82
2022/03/13 11:05:39;;;;;;;4.60;4.30;;;;;;;10.27;25.18;100431.56;5111315;28;20438;-82
2022/03/13 11:08:07;;;;;;;4.67;4.27;;;;;;;10.34;25.10;100447.91;5111600;28;20684;-79
2022/03/13 11:10:37;;;;;;;4.50;4.17;;;;;;;10.25;24.94;100430.75;5111528;28;20270;-81
2022/03/13 11:13:05;;;;;;;6.17;4.77;;;;;;;10.38;25.36;100462.59;5111640;28;20295;-81
2022/03/13 11:15:35;;;;;;;5.10;4.57;;;;;;;10.37;25.60;100450.47;5111932;28;20229;-81
2022/03/13 11:18:03;;;;;;;4.53;4.13;;;;;;;10.47;25.12;100452.06;5111889;28;20668;-82
2022/03/13 11:20:31;;;;;;;5.03;4.63;;;;;;;10.31;25.86;100450.53;5111828;28;20234;-78
2022/03/13 11:22:58;;;;;;;4.87;4.47;;;;;;;10.28;26.08;100435.88;5112233;28;20222;-83